Time;durP1;ratioP1;P1;durP2;ratioP2;P2;SDS_P1;SDS_P2;PMS_P1;PMS_P2;Temp;Humidity;BMP_temperature;BMP_pressure;BME280_temperature;BME280_humidity;BME280_pressure;Samples;Min_cycle;Max_cycle;Signal;HPM_P1;HPM_P2
2024/01/03 10:08:59;;;;;;;1.50;0.73;;;;;;;10.35;100.00;97049.69;5149992;27;20565;-84
2024/01/03 10:14:30;;;;;;;2.37;0.90;;;;;;;11.19;100.00;97055.16;5130536;27;42332;-87
2024/01/03 10:17:09;;;;;;;1.70;0.77;;;;;;;11.32;100.00;97053.03;5132502;27;41768;-85
2024/01/03 10:26:17;;;;;;;0.87;0.70;;;;;;;14.02;100.00;97046.28;5130511;27;42582;-88
2024/01/03 10:29:13;;;;;;;1.70;0.80;;;;;;;15.17;88.76;97080.09;5134312;27;42268;-88
2024/01/03 10:35:05;;;;;;;1.33;0.93;;;;;;;13.48;92.05;97047.53;5133255;27;38917;-87
2024/01/03 10:37:44;;;;;;;1.43;0.57;;;;;;;13.05;93.68;97041.28;5135913;27;41610;-87
2024/01/03 10:40:56;;;;;;;4.83;1.80;;;;;;;12.61;94.66;96999.78;5134866;27;41669;-84
2024/01/03 10:43:45;;;;;;;2.33;0.60;;;;;;;12.86;94.53;97036.97;5135810;27;40857;-87
2024/01/03 10:46:45;;;;;;;0.97;0.50;;;;;;;12.95;93.24;97069.78;5134949;27;39348;-89
2024/01/03 10:55:40;;;;;;;3.13;0.73;;;;;;;13.82;84.39;97072.34;5169483;27;42359;-88
2024/01/03 10:58:32;;;;;;;2.50;0.60;;;;;;;13.76;84.82;97074.78;5154218;27;39671;-85
2024/01/03 11:01:44;;;;;;;2.63;0.87;;;;;;;13.56;84.04;97042.28;5138333;27;43299;-86
2024/01/03 11:04:47;;;;;;;1.43;0.60;;;;;;;13.93;83.37;97072.06;5138047;27;41980;-87
2024/01/03 11:07:23;;;;;;;2.87;0.70;;;;;;;14.84;79.12;97081.94;5137618;27;41330;-86
2024/01/03 11:10:31;;;;;;;1.93;0.70;;;;;;;15.09;75.82;97049.78;5154933;27;41478;-86
2024/01/03 11:16:59;;;;;;;1.07;0.80;;;;;;;15.01;72.25;97051.63;5133261;27;42137;-86
2024/01/03 11:19:33;;;;;;;0.90;0.53;;;;;;;15.06;70.22;97078.63;5141187;27;42027;-85
2024/01/03 11:22:44;;;;;;;2.80;0.73;;;;;;;15.66;68.50;97060.38;5120775;27;39196;-87
2024/01/03 11:25:47;;;;;;;2.37;0.97;;;;;;;16.64;64.40;97076.81;5136767;27;42752;-86
2024/01/03 11:28:36;;;;;;;1.70;0.60;;;;;;;16.88;59.61;97087.31;5120595;27;43274;-89
2024/01/03 11:33:56;;;;;;;0.87;0.50;;;;;;;18.64;55.12;97123.34;5161049;27;38809;-86
2024/01/03 11:37:06;;;;;;;1.93;0.70;;;;;;;17.88;53.66;97114.69;5161370;27;41931;-87
2024/01/03 11:39:41;;;;;;;1.80;0.70;;;;;;;16.62;55.66;97057.44;5162354;27;42760;-86
2024/01/03 11:42:35;;;;;;;2.83;0.90;;;;;;;16.60;57.98;97107.50;5161494;27;41267;-86
2024/01/03 11:45:25;;;;;;;1.20;0.70;;;;;;;15.73;59.56;97074.69;5161261;27;40526;-86
2024/01/03 11:48:33;;;;;;;2.67;0.70;;;;;;;15.28;60.70;97066.44;5144112;27;42957;-87
2024/01/03 11:51:22;;;;;;;2.27;0.60;;;;;;;14.53;61.73;97031.13;5140784;27;41668;-85
2024/01/03 11:53:57;;;;;;;2.80;0.70;;;;;;;14.13;63.49;97031.84;5139189;27;41699;-89
2024/01/03 11:56:32;;;;;;;1.37;0.60;;;;;;;13.81;63.74;97022.78;5135149;27;38832;-85
2024/01/03 11:59:20;;;;;;;1.20;0.70;;;;;;;14.14;65.69;97086.75;5137465;27;40903;-87
2024/01/03 12:02:19;;;;;;;3.53;0.70;;;;;;;14.25;65.46;97089.13;5129637;27;43118;-87
2024/01/03 12:05:20;;;;;;;2.70;0.60;;;;;;;14.85;63.56;97048.94;5132959;27;42347;-86
2024/01/03 12:11:14;;;;;;;2.30;0.70;;;;;;;15.55;59.80;97076.75;5118819;27;43601;-87
2024/01/03 12:13:41;;;;;;;0.90;0.67;;;;;;;15.07;60.10;97043.81;5119503;27;43054;-88
2024/01/03 12:16:16;;;;;;;2.20;0.80;;;;;;;15.12;60.98;97104.59;5120386;27;41291;-89
2024/01/03 12:19:25;;;;;;;3.37;0.70;;;;;;;14.86;61.65;97055.94;5119874;27;40510;-88
2024/01/03 12:21:54;;;;;;;3.37;0.90;;;;;;;14.84;62.17;97048.13;5122159;27;40632;-87
2024/01/03 12:24:38;;;;;;;3.87;0.70;;;;;;;15.33;60.76;97064.09;5140624;27;41689;-85
2024/01/03 12:27:23;;;;;;;2.30;0.60;;;;;;;16.11;59.52;97086.41;5155110;27;42624;-87
2024/01/03 12:30:12;;;;;;;2.03;0.90;;;;;;;15.87;59.13;97078.47;5139920;27;39064;-88
2024/01/03 12:32:40;;;;;;;2.23;0.90;;;;;;;15.52;60.11;97073.56;5140664;27;40742;-85
2024/01/03 12:35:08;;;;;;;1.57;0.63;;;;;;;15.34;60.38;97087.91;5176356;27;43152;-85
2024/01/03 12:37:36;;;;;;;3.13;1.13;;;;;;;14.91;61.41;97064.28;5157468;27;41345;-83
2024/01/03 12:40:21;;;;;;;2.90;0.80;;;;;;;14.74;62.59;97066.09;5140540;27;38835;-86
2024/01/03 12:42:47;;;;;;;3.70;0.87;;;;;;;14.51;63.68;97068.56;5154240;27;42509;-84
2024/01/03 12:45:15;;;;;;;1.67;0.80;;;;;;;14.33;64.89;97070.53;5140743;27;41765;-83
2024/01/03 12:47:43;;;;;;;2.73;0.80;;;;;;;13.99;65.33;97036.78;5157349;27;43102;-84
2024/01/03 12:50:10;;;;;;;2.73;0.57;;;;;;;13.94;66.45;97036.47;5158197;27;40991;-87
2024/01/03 12:52:38;;;;;;;2.63;0.77;;;;;;;14.00;67.03;97050.94;5140373;27;40582;-87
2024/01/03 12:55:27;;;;;;;2.57;0.60;;;;;;;13.82;68.29;97002.34;5123186;27;44293;-86
2024/01/03 12:57:55;;;;;;;1.27;0.70;;;;;;;14.56;67.79;96980.19;5139475;27;42453;-89
2024/01/03 13:00:44;;;;;;;2.37;0.97;;;;;;;15.67;64.28;97007.84;5133324;27;39960;-88
2024/01/03 13:03:16;;;;;;;3.23;1.00;;;;;;;17.02;60.82;97040.25;5119299;27;40834;-84
2024/01/03 13:05:44;;;;;;;2.00;0.70;;;;;;;17.73;56.38;97062.16;5136349;27;41950;-82
2024/01/03 13:08:11;;;;;;;1.47;0.53;;;;;;;17.13;57.03;97065.72;5136490;27;42683;-83
2024/01/03 13:10:41;;;;;;;0.90;0.80;;;;;;;16.35;58.52;97028.50;5136915;27;38888;-88
2024/01/03 13:13:09;;;;;;;1.33;0.57;;;;;;;16.12;59.71;97069.38;5136714;27;40376;-89
2024/01/03 13:15:39;;;;;;;1.43;0.50;;;;;;;15.51;60.89;97051.38;5135594;27;45010;-83
2024/01/03 13:18:06;;;;;;;1.47;0.50;;;;;;;15.31;62.47;97056.28;5153722;27;42252;-87
2024/01/03 13:20:42;;;;;;;1.50;0.60;;;;;;;14.95;63.33;97041.66;5136385;27;39942;-87
2024/01/03 13:23:09;;;;;;;1.43;0.60;;;;;;;14.72;64.27;97023.63;5136179;27;41714;-87
2024/01/03 13:25:48;;;;;;;1.27;0.53;;;;;;;14.60;64.75;97027.63;5135653;27;43054;-83
2024/01/03 13:28:15;;;;;;;2.00;0.70;;;;;;;14.46;66.09;97030.97;5136247;27;40726;-85
2024/01/03 13:30:43;;;;;;;1.47;0.50;;;;;;;14.11;66.76;97013.38;5135984;27;39124;-82
2024/01/03 13:33:11;;;;;;;1.30;0.67;;;;;;;13.84;67.46;97011.00;5135999;27;40884;-85
2024/01/03 13:35:41;;;;;;;2.63;0.90;;;;;;;13.66;68.06;97014.56;5135258;27;41846;-84
2024/01/03 13:38:11;;;;;;;3.07;0.90;;;;;;;13.48;68.68;97010.31;5135929;27;42439;-85
2024/01/03 13:40:41;;;;;;;0.73;0.70;;;;;;;13.49;69.63;97015.47;5135715;27;38906;-83
2024/01/03 13:43:10;;;;;;;3.23;0.80;;;;;;;13.33;70.19;97006.59;5135470;27;40849;-91
2024/01/03 13:45:40;;;;;;;1.53;0.63;;;;;;;13.35;70.45;97033.88;5135108;27;43650;-85
2024/01/03 13:48:13;;;;;;;1.50;0.70;;;;;;;13.14;71.43;97029.75;5119070;27;41899;-85
2024/01/03 13:50:41;;;;;;;2.73;0.80;;;;;;;12.91;72.43;97012.63;5135429;27;39134;-84
2024/01/03 13:53:08;;;;;;;1.07;0.60;;;;;;;12.82;73.78;97000.28;5135848;27;42455;-84
2024/01/03 13:55:36;;;;;;;2.43;0.73;;;;;;;12.50;74.61;96969.81;5135491;27;43581;-83
2024/01/03 13:58:04;;;;;;;2.30;0.70;;;;;;;12.59;77.39;96999.94;5135827;27;42410;-85
2024/01/03 14:00:33;;;;;;;2.30;0.70;;;;;;;12.12;81.06;96973.63;5134984;27;41325;-85
2024/01/03 14:03:07;;;;;;;1.80;0.77;;;;;;;11.72;83.50;96950.16;5136227;27;41439;-83
2024/01/03 14:05:35;;;;;;;3.17;0.80;;;;;;;11.88;86.02;96992.78;5135134;27;42264;-83
2024/01/03 14:08:06;;;;;;;0.83;0.50;;;;;;;11.62;90.03;96981.19;5135662;27;42815;-84
2024/01/03 14:10:34;;;;;;;1.90;0.60;;;;;;;11.61;92.58;96992.78;5135439;27;39058;-85
2024/01/03 14:13:02;;;;;;;0.67;0.40;;;;;;;11.40;93.76;97003.63;5135816;27;40833;-84
2024/01/03 14:15:29;;;;;;;1.50;0.47;;;;;;;11.22;94.54;96986.00;5153605;27;43561;-82
2024/01/03 14:17:59;;;;;;;2.27;0.50;;;;;;;11.19;95.42;96994.22;5154112;27;43596;-86
2024/01/03 14:20:28;;;;;;;0.90;0.70;;;;;;;11.12;96.86;96989.53;5155815;27;40045;-83
2024/01/03 14:22:56;;;;;;;3.20;0.37;;;;;;;10.89;96.71;96974.94;5137420;27;40817;-80
2024/01/03 14:25:25;;;;;;;0.53;0.33;;;;;;;10.80;97.25;96976.63;5154705;27;43815;-84
2024/01/03 14:27:53;;;;;;;0.53;0.47;;;;;;;10.67;99.18;96973.47;5137153;27;41172;-81
2024/01/03 14:30:20;;;;;;;0.83;0.30;;;;;;;10.67;99.93;96983.22;5154427;27;41013;-81
2024/01/03 14:32:48;;;;;;;2.97;0.50;;;;;;;10.54;100.00;96966.78;5152879;27;41385;-83
2024/01/03 14:35:17;;;;;;;0.87;0.40;;;;;;;10.48;100.00;96972.66;5135353;27;42453;-83
2024/01/03 14:37:44;;;;;;;2.10;0.57;;;;;;;10.48;100.00;96994.66;5152222;27;42975;-83
2024/01/03 14:40:15;;;;;;;0.90;0.30;;;;;;;10.39;100.00;96992.84;5135203;27;39703;-86
2024/01/03 14:43:09;;;;;;;1.07;0.53;;;;;;;10.22;100.00;96957.38;5151457;27;41057;-87
